Latest Weather Observations for Central Arnhem Plateau

IDD60801

Issued at 4:05 pm CST Tuesday 29 July 2014 (issued every 30 minutes, with the page automatically refreshed every 10 minutes)

About weather observations | Map of weather stations | Latest weather observations for NT | Other Formats
Station Details ID: 014909 Name: CENTRAL ARNHEM PLATEAU Lat: -13.33 Lon: 133.09 Height: 416.0 m
Data from the previous 72 hours. | See also: Recent months for locations in Northern Territory
Date/Time
CST
Temp
°C
App
Temp
°C
Dew
Point
Rel
Hum
%
Delta-T
°C
Wind Press
QNH
hPa
Press
MSL
hPa
Rain
since 9 am
mm
Dir
 
Spd
km/h
Gust
km/h
Spd
kts
Gust
kts
29/04:00pm 28.8 24.8 10.5 32 10.6 E 22 30 12 16 1015.3 - 0.0
29/03:30pm 29.7 25.8 10.8 31 11.0 E 22 32 12 17 1015.4 1013.5 0.0
29/03:00pm 28.8 24.3 10.0 31 10.8 E 24 37 13 20 1015.6 1013.7 0.0
29/02:30pm 29.1 24.8 10.7 32 10.7 E 24 39 13 21 1016.0 1014.1 0.0
29/02:00pm 28.8 24.7 11.4 34 10.2 ESE 24 35 13 19 1016.3 - 0.0
29/01:30pm 27.5 22.7 10.2 34 9.9 ESE 26 39 14 21 1016.8 1014.8 0.0
29/01:00pm 28.3 24.2 11.4 35 9.9 E 24 35 13 19 1017.2 - 0.0
29/12:30pm 28.5 24.7 12.4 37 9.6 E 24 37 13 20 1017.7 1015.8 0.0
29/12:00pm 27.6 22.7 11.2 36 9.5 E 28 39 15 21 1018.0 1016.1 0.0
29/11:30am 26.7 21.9 11.6 39 8.8 E 28 43 15 23 1018.4 1016.5 0.0
29/11:05am 26.3 21.4 11.2 38 8.7 E 28 46 15 25 1018.5 - 0.0
29/11:00am 26.0 21.0 11.0 39 8.6 E 28 39 15 21 1018.7 - 0.0
29/10:30am 25.5 19.3 9.3 36 9.0 E 32 39 17 21 1019.1 1017.1 0.0
29/10:00am 25.0 19.4 10.1 39 8.4 ESE 30 41 16 22 1019.4 - 0.0
29/09:30am 24.4 19.7 10.7 42 7.8 E 26 35 14 19 1019.4 1017.5 0.0
29/09:00am 23.1 19.5 10.5 45 7.1 ESE 20 26 11 14 1019.3 1017.4 0.0
29/08:30am 22.0 19.3 10.5 48 6.4 ESE 15 20 8 11 1019.0 1017.0 0.0
29/08:00am 20.9 18.5 10.1 50 6.0 ESE 13 20 7 11 1018.7 - 0.0
29/07:30am 20.0 18.2 10.7 55 5.1 ESE 11 15 6 8 1018.3 1016.4 0.0
29/07:00am 19.4 17.8 11.4 60 4.5 ESE 11 13 6 7 1018.1 - 0.0
29/06:30am 19.8 18.0 12.1 61 4.4 ESE 13 17 7 9 1017.8 1015.9 0.0
29/06:00am 19.8 18.3 13.0 65 3.9 E 13 17 7 9 1017.5 1015.6 0.0
29/05:30am 19.5 18.3 13.9 70 3.3 E 13 17 7 9 1017.3 1015.4 0.0
29/05:00am 19.2 18.6 14.7 75 2.7 E 11 15 6 8 1017.2 - 0.0
29/04:30am 19.4 18.4 14.6 74 2.8 E 13 15 7 8 1017.1 1015.2 0.0
29/04:00am 19.7 18.4 14.9 74 2.9 E 15 20 8 11 1017.0 - 0.0
29/03:30am 19.8 18.5 14.8 73 3.0 ESE 15 20 8 11 1017.1 1015.2 0.0
29/03:00am 19.9 19.9 14.3 70 3.3 ESE 7 11 4 6 1017.1 1015.2 0.0
29/02:30am 20.3 19.9 14.0 67 3.7 E 9 13 5 7 1017.3 1015.4 0.0
29/02:00am 20.8 19.4 13.5 63 4.3 ESE 13 19 7 10 1017.4 - 0.0
29/01:30am 21.2 19.3 13.1 60 4.7 ESE 15 20 8 11 1017.6 1015.7 0.0
29/01:00am 21.6 19.6 12.7 57 5.2 ESE 15 20 8 11 1017.7 - 0.0
29/12:30am 22.0 20.3 12.3 54 5.6 ESE 13 19 7 10 1017.9 1016.0 0.0
29/12:00am 22.5 20.4 12.4 52 5.8 ESE 15 20 8 11 1018.1 1016.2 0.0
 
Date/Time
CST
Temp
°C
App
Temp
°C
Dew
Point
Rel
Hum
%
Delta-T
°C
Wind Press
QNH
hPa
Press
MSL
hPa
Rain
since 9 am
mm
Dir
 
Spd
km/h
Gust
km/h
Spd
kts
Gust
kts
28/11:30pm 22.6 20.8 12.0 51 6.1 ESE 13 19 7 10 1018.2 1016.3 0.0
28/11:00pm 22.8 21.2 11.5 49 6.4 ESE 11 17 6 9 1018.2 - 0.0
28/10:30pm 23.1 21.0 11.2 47 6.8 ESE 13 17 7 9 1018.1 1016.2 0.0
28/10:00pm 23.5 21.6 10.6 44 7.3 ESE 11 15 6 8 1018.2 - 0.0
28/09:30pm 23.8 22.2 10.1 42 7.7 ESE 9 13 5 7 1017.9 1016.0 0.0
28/09:00pm 24.5 22.4 9.6 39 8.3 ESE 11 15 6 8 1017.6 1015.7 0.0
28/08:30pm 24.8 23.0 9.5 38 8.5 SE 9 13 5 7 1017.5 1015.6 0.0
28/08:00pm 25.3 23.4 9.2 36 8.9 ESE 9 13 5 7 1017.2 - 0.0
28/07:30pm 26.0 23.7 8.9 34 9.5 ESE 11 15 6 8 1016.8 1014.8 0.0
28/07:00pm 26.7 24.0 9.1 33 9.8 ESE 13 17 7 9 1016.3 - 0.0
28/06:30pm 27.5 24.7 8.4 30 10.6 ESE 13 19 7 10 1015.9 1014.0 0.0
28/06:00pm 28.2 24.5 8.0 28 11.1 ESE 17 22 9 12 1015.5 1013.6 0.0
28/05:30pm 28.8 24.7 8.5 28 11.3 E 20 24 11 13 1015.2 1013.3 0.0
28/05:00pm 29.1 25.1 8.2 27 11.6 SE 19 30 10 16 1014.9 - 0.0
28/04:30pm 29.4 26.2 8.5 27 11.7 ENE 15 28 8 15 1014.8 1012.8 0.0
28/04:00pm 29.0 25.7 8.1 27 11.6 E 15 19 8 10 1014.8 - 0.0
28/03:30pm 29.1 26.3 8.7 28 11.4 E 13 20 7 11 1014.9 1013.0 0.0
28/03:00pm 29.6 25.5 8.6 27 11.8 E 20 35 11 19 1015.3 1013.4 0.0
28/02:30pm 29.5 25.4 8.5 27 11.8 E 20 26 11 14 1015.6 1013.7 0.0
28/02:00pm 29.0 24.3 9.2 29 11.2 E 24 35 13 19 1015.9 - 0.0
28/01:30pm 28.2 23.6 9.5 31 10.6 E 24 37 13 20 1016.5 1014.5 0.0
28/01:03pm 27.8 22.4 9.6 32 10.3 ESE 28 46 15 25 1016.9 - 0.0
28/01:00pm 28.6 23.4 10.3 32 10.5 E 28 41 15 22 1016.9 - 0.0
28/12:30pm 27.8 22.4 10.9 35 9.8 E 30 43 16 23 1017.5 1015.6 0.0
28/12:20pm 27.9 22.8 10.6 34 10.0 E 28 48 15 26 1017.6 - 0.0
28/12:00pm 27.3 22.6 10.5 35 9.6 E 26 41 14 22 1018.1 1016.2 0.0
28/11:52am 28.8 24.0 11.8 35 10.0 E 28 46 15 25 1018.2 - 0.0
28/11:30am 26.6 20.4 11.5 39 8.8 E 35 48 19 26 1018.4 1016.5 0.0
28/11:00am 26.5 21.5 13.3 44 7.9 E 32 50 17 27 1018.8 - 0.0
28/10:56am 26.1 21.1 12.2 42 8.1 E 30 50 16 27 1018.8 - 0.0
28/10:30am 25.7 21.2 13.9 48 7.1 E 30 41 16 22 1019.0 1017.0 0.0
28/10:00am 24.7 19.4 12.6 47 7.1 E 32 43 17 23 1019.2 - 0.0
28/09:30am 24.5 20.3 12.5 47 7.0 E 26 43 14 23 1019.3 1017.4 0.0
28/09:00am 23.5 19.0 12.5 50 6.4 E 28 39 15 21 1019.1 1017.1 0.0
28/08:30am 22.0 18.2 12.3 54 5.6 ESE 24 32 13 17 1018.7 1016.8 0.0
28/08:00am 21.0 18.4 11.9 56 5.2 ESE 17 24 9 13 1018.6 - 0.0
28/07:30am 20.1 17.7 11.3 57 4.9 ESE 15 20 8 11 1018.4 1016.5 0.0
28/07:00am 19.6 17.1 11.1 58 4.7 ESE 15 20 8 11 1018.0 - 0.0
28/06:30am 19.6 17.2 11.4 59 4.6 E 15 20 8 11 1017.8 1015.9 0.0
28/06:00am 19.5 16.8 11.8 61 4.3 ESE 17 24 9 13 1017.5 1015.6 0.0
28/05:30am 19.1 16.7 12.6 66 3.7 ESE 17 22 9 12 1017.2 1015.3 0.0
28/05:00am 18.3 17.2 14.2 77 2.4 ESE 13 17 7 9 1017.2 - 0.0
28/04:30am 18.1 17.5 14.6 80 2.1 ESE 11 15 6 8 1017.1 1015.2 0.0
28/04:00am 18.4 17.7 14.3 77 2.4 SE 11 13 6 7 1017.2 - 0.0
28/03:30am 19.0 18.6 15.1 78 2.3 ESE 11 15 6 8 1017.5 1015.6 0.0
28/03:00am 19.3 18.6 14.3 73 2.9 ESE 11 15 6 8 1017.7 1015.8 0.0
28/02:30am 19.6 18.6 13.3 67 3.6 E 11 15 6 8 1018.0 1016.1 0.0
28/02:00am 20.0 18.9 12.0 60 4.5 ESE 9 11 5 6 1018.3 - 0.0
28/01:30am 20.6 19.0 11.5 56 5.1 ESE 11 15 6 8 1018.5 1016.6 0.0
28/01:00am 21.2 19.5 11.2 53 5.6 ESE 11 15 6 8 1018.6 - 0.0
28/12:30am 21.8 19.6 10.9 50 6.1 ESE 13 17 7 9 1018.7 1016.8 0.0
28/12:00am 22.4 20.2 10.9 48 6.5 ESE 13 19 7 10 1018.7 1016.8 0.0
 
Date/Time
CST
Temp
°C
App
Temp
°C
Dew
Point
Rel
Hum
%
Delta-T
°C
Wind Press
QNH
hPa
Press
MSL
hPa
Rain
since 9 am
mm
Dir
 
Spd
km/h
Gust
km/h
Spd
kts
Gust
kts
27/11:30pm 22.8 20.6 10.9 47 6.7 ESE 13 22 7 12 1018.7 1016.8 0.0
27/11:00pm 23.2 20.9 10.3 44 7.2 ESE 13 15 7 8 1018.8 - 0.0
27/10:30pm 23.6 21.3 10.3 43 7.4 ESE 13 19 7 10 1018.8 1016.9 0.0
27/10:00pm 24.1 21.7 10.0 41 7.9 ESE 13 20 7 11 1018.8 - 0.0
27/09:30pm 24.6 21.4 10.1 40 8.1 ESE 17 24 9 13 1018.6 1016.7 0.0
27/09:00pm 25.0 21.4 9.7 38 8.5 ESE 19 28 10 15 1018.4 1016.5 0.0
27/08:30pm 25.6 21.3 9.4 36 9.0 ESE 22 33 12 18 1017.9 1016.0 0.0
27/08:00pm 26.2 22.5 9.5 35 9.4 ESE 19 28 10 15 1017.6 - 0.0
27/07:30pm 26.5 23.5 9.4 34 9.6 ESE 15 20 8 11 1017.2 1015.3 0.0
27/07:00pm 26.8 23.9 9.6 34 9.7 ESE 15 24 8 13 1017.0 - 0.0
27/06:30pm 27.2 23.9 9.5 33 10.0 ESE 17 24 9 13 1016.6 1014.6 0.0
27/06:00pm 27.4 23.8 9.7 33 10.0 ESE 19 26 10 14 1016.2 1014.3 0.0
27/05:30pm 27.5 23.9 9.8 33 10.0 ESE 19 26 10 14 1016.0 1014.1 0.0
27/05:00pm 27.9 24.4 10.1 33 10.2 E 19 26 10 14 1016.0 - 0.0
27/04:30pm 27.9 24.9 10.6 34 10.0 E 17 20 9 11 1015.9 1014.0 0.0
27/04:00pm 28.6 24.9 10.3 32 10.5 E 20 33 11 18 1015.7 - 0.0
27/03:30pm 28.4 23.0 9.6 31 10.7 E 28 37 15 20 1015.7 1013.8 0.0
27/03:00pm 28.1 23.2 9.9 32 10.4 ESE 26 35 14 19 1015.9 1014.0 0.0
27/02:30pm 28.6 23.8 10.3 32 10.5 E 26 35 14 19 1016.1 1014.2 0.0
27/02:00pm 28.4 22.9 10.6 33 10.3 SE 30 43 16 23 1016.6 - 0.0
27/01:30pm 29.1 24.0 10.7 32 10.7 E 28 41 15 22 1017.2 1015.3 0.0
27/01:00pm 28.9 23.2 11.0 33 10.4 E 32 43 17 23 1017.6 - 0.0
27/12:30pm 28.1 22.8 11.2 35 9.8 ESE 30 44 16 24 1018.2 1016.3 0.0
27/12:00pm 28.1 22.1 10.8 34 10.0 E 33 44 18 24 1018.6 1016.7 0.0
27/11:30am 27.1 21.6 10.7 35 9.4 ESE 30 48 16 26 1019.1 1017.1 0.0
27/11:05am 27.3 21.8 11.7 37 9.1 ESE 32 50 17 27 1019.4 - 0.0
27/11:00am 27.7 22.3 12.1 38 9.2 E 32 48 17 26 1019.5 - 0.0
27/10:30am 27.0 22.4 12.3 40 8.6 E 28 39 15 21 1019.7 1017.8 0.0
27/10:00am 26.2 21.5 11.9 41 8.3 E 28 44 15 24 1019.7 - 0.0
27/09:30am 24.9 20.7 12.5 46 7.2 E 26 35 14 19 1019.7 1017.8 0.0
27/09:00am 23.2 20.8 13.7 55 5.6 ESE 19 24 10 13 1019.6 1017.7 -
27/08:30am 21.5 19.2 14.2 63 4.3 ESE 19 24 10 13 1019.6 1017.7 -
27/08:00am 20.4 19.0 14.5 69 3.5 ESE 15 20 8 11 1019.3 - -
27/07:30am 19.4 17.9 14.2 72 3.1 ESE 15 20 8 11 1019.0 1017.0 -
27/07:00am 18.8 17.3 14.3 75 2.6 ESE 15 20 8 11 1018.5 - -
27/06:30am 19.1 17.7 14.6 75 2.7 ESE 15 20 8 11 1018.3 1016.4 -
27/06:00am 19.0 17.7 14.9 77 2.4 ESE 15 20 8 11 1018.2 1016.3 -
27/05:30am 19.0 17.9 15.3 79 2.2 ESE 15 20 8 11 1018.0 1016.1 -
27/05:00am 18.9 18.1 15.2 79 2.2 ESE 13 17 7 9 1017.8 - -
27/04:30am 19.0 18.7 15.5 80 2.1 ESE 11 15 6 8 1017.8 1015.9 -
27/04:00am 19.4 19.1 15.5 78 2.3 ESE 11 15 6 8 1018.1 - -
27/03:30am 19.8 19.2 15.7 77 2.5 ESE 13 17 7 9 1018.3 1016.4 -
27/03:00am 20.1 19.1 15.5 75 2.8 ESE 15 20 8 11 1018.3 1016.4 -
27/02:30am 20.3 19.6 15.3 73 3.0 ESE 13 17 7 9 1018.8 1016.9 -
27/02:00am 20.6 19.5 15.4 72 3.1 E 15 19 8 10 1019.3 - -
27/01:30am 21.1 19.6 15.4 70 3.4 E 17 20 9 11 1019.5 1017.6 -
27/01:00am 21.4 20.7 15.5 69 3.6 E 13 17 7 9 1019.8 - -
27/12:30am 22.0 20.9 15.4 66 4.0 E 15 19 8 10 1020.1 1018.2 -
27/12:00am 22.3 20.5 15.4 65 4.2 E 19 22 10 12 1020.1 1018.2 -
 
Date/Time
CST
Temp
°C
App
Temp
°C
Dew
Point
Rel
Hum
%
Delta-T
°C
Wind Press
QNH
hPa
Press
MSL
hPa
Rain
since 9 am
mm
Dir
 
Spd
km/h
Gust
km/h
Spd
kts
Gust
kts
26/11:30pm 22.8 20.3 15.1 62 4.7 E 22 30 12 16 1020.2 1018.3 -
26/11:00pm 23.2 20.3 15.0 60 5.0 E 24 33 13 18 1020.2 - -
26/10:30pm 23.6 21.6 14.9 58 5.3 E 19 26 10 14 1020.1 1018.2 -
26/10:00pm 24.0 21.8 14.4 55 5.8 E 19 26 10 14 1020.1 - -
26/09:30pm 24.3 21.4 14.1 53 6.1 ESE 22 33 12 18 1020.0 1018.1 -
26/09:00pm 24.6 22.5 13.5 50 6.6 E 17 30 9 16 1019.7 1017.8 -
26/08:30pm 25.1 23.5 12.7 46 7.3 E 13 17 7 9 1019.3 1017.4 -
26/08:00pm 25.5 23.4 12.4 44 7.7 E 15 20 8 11 1019.0 - -
26/07:30pm 25.7 23.7 11.5 41 8.2 E 13 17 7 9 1018.5 1016.6 -
26/07:00pm 26.3 24.2 11.2 38 8.7 ESE 13 17 7 9 1018.2 - -
26/06:30pm 26.8 23.8 10.5 36 9.3 ESE 17 20 9 11 1017.9 1016.0 -
26/06:00pm 27.3 23.8 10.1 34 9.8 E 19 24 10 13 1017.6 1015.7 -
26/05:30pm 27.9 23.0 10.1 33 10.1 ESE 26 35 14 19 1017.3 1015.4 -
26/05:00pm 28.3 24.6 10.0 32 10.4 E 20 33 11 18 1017.0 - -
26/04:30pm 28.4 24.7 10.1 32 10.5 ESE 20 41 11 22 1016.8 1014.8 -

Other Formats:

Comma delimited format used in spreadsheet applications
http://www.bom.gov.au/fwo/IDD60801/IDD60801.94141.axf

JavaScript Object Notation format (JSON) in row-major order
http://www.bom.gov.au/fwo/IDD60801/IDD60801.94141.json